createdAt,value
2022-10-23T00:01:16.207Z,11.30
2022-10-23T00:03:19.020Z,11.30
2022-10-23T00:05:22.245Z,11.40
2022-10-23T00:07:25.108Z,11.40
2022-10-23T00:09:27.943Z,11.40
2022-10-23T00:11:31.284Z,11.50
2022-10-23T00:13:34.219Z,11.50
2022-10-23T00:15:38.371Z,11.50
2022-10-23T00:17:41.732Z,11.50
2022-10-23T00:19:44.776Z,11.50
2022-10-23T00:21:47.676Z,11.50
2022-10-23T00:23:50.472Z,11.50
2022-10-23T00:25:53.707Z,11.50
2022-10-23T00:27:56.565Z,11.50
2022-10-23T00:29:59.398Z,11.50
2022-10-23T00:32:03.617Z,11.40
2022-10-23T00:34:08.326Z,11.50
2022-10-23T00:36:12.789Z,11.50
2022-10-23T00:38:15.624Z,11.50
2022-10-23T00:40:18.505Z,11.50
2022-10-23T00:42:21.909Z,11.50
2022-10-23T00:45:02.270Z,11.50
2022-10-23T00:47:06.488Z,11.50
2022-10-23T00:49:09.678Z,11.50
2022-10-23T00:51:12.571Z,11.50
2022-10-23T00:53:15.394Z,11.50
2022-10-23T00:55:18.512Z,11.50
2022-10-23T00:57:21.393Z,11.50
2022-10-23T00:59:24.282Z,11.50
2022-10-23T01:01:27.301Z,11.50
2022-10-23T01:03:31.544Z,11.50
2022-10-23T01:05:37.177Z,11.50
2022-10-23T01:07:44.646Z,11.50
2022-10-23T01:09:49.415Z,11.50
2022-10-23T01:11:54.105Z,11.50
2022-10-23T01:14:00.904Z,11.50
2022-10-23T01:16:06.978Z,11.50
2022-10-23T01:18:13.936Z,11.40
2022-10-23T01:20:28.754Z,11.40
2022-10-23T01:22:51.749Z,11.40
2022-10-23T01:24:57.007Z,11.40
2022-10-23T01:27:21.167Z,11.40
2022-10-23T01:29:26.685Z,11.40
2022-10-23T01:31:31.646Z,11.40
2022-10-23T01:33:36.282Z,11.40
2022-10-23T01:35:42.048Z,11.50
2022-10-23T01:37:46.921Z,11.50
2022-10-23T01:39:51.469Z,11.50
2022-10-23T01:41:55.946Z,11.40
2022-10-23T01:44:02.705Z,11.40
2022-10-23T01:46:06.828Z,11.40
2022-10-23T01:48:11.080Z,11.40
2022-10-23T01:50:14.444Z,11.30
2022-10-23T01:52:17.305Z,11.30
2022-10-23T01:54:20.504Z,11.30
2022-10-23T01:56:25.210Z,11.30
2022-10-23T01:58:28.121Z,11.30
2022-10-23T02:00:32.351Z,11.30
2022-10-23T02:02:35.274Z,11.20
2022-10-23T02:04:41.368Z,11.30
2022-10-23T02:06:44.245Z,11.30
2022-10-23T02:08:47.095Z,11.30
2022-10-23T02:10:51.927Z,11.30
2022-10-23T02:12:58.997Z,11.20
2022-10-23T02:15:04.338Z,11.20
2022-10-23T02:17:12.142Z,11.20
2022-10-23T02:19:18.717Z,11.20
2022-10-23T02:21:24.879Z,11.20
2022-10-23T02:23:30.368Z,11.20
2022-10-23T02:25:34.579Z,11.20
2022-10-23T02:27:40.968Z,11.20
2022-10-23T02:29:45.297Z,11.10
2022-10-23T02:31:48.377Z,11.10
2022-10-23T02:33:52.578Z,11.10
2022-10-23T02:35:55.436Z,11.10
2022-10-23T02:37:59.340Z,11.10
2022-10-23T02:40:03.871Z,11.10
2022-10-23T02:42:10.016Z,11.10
2022-10-23T02:44:22.707Z,11.10
2022-10-23T02:46:29.192Z,11.10
2022-10-23T02:48:34.437Z,11.10
2022-10-23T02:50:40.293Z,11.10
2022-10-23T02:52:45.033Z,11.00
2022-10-23T02:55:12.065Z,11.00
2022-10-23T02:57:20.437Z,11.00
2022-10-23T02:59:24.647Z,11.00
2022-10-23T03:01:28.521Z,11.00
2022-10-23T03:03:32.970Z,10.90
2022-10-23T03:05:39.206Z,10.90
2022-10-23T03:07:42.666Z,10.80
2022-10-23T03:09:45.811Z,10.80
2022-10-23T03:11:48.652Z,10.80
2022-10-23T03:13:51.513Z,10.80
2022-10-23T03:15:54.463Z,10.70
2022-10-23T03:17:57.316Z,10.70
2022-10-23T03:20:00.332Z,10.70
2022-10-23T03:22:04.557Z,10.70
2022-10-23T03:24:07.764Z,10.70
2022-10-23T03:26:10.697Z,10.70
2022-10-23T03:28:13.536Z,10.70
2022-10-23T03:30:16.412Z,10.60
2022-10-23T03:32:19.280Z,10.60
2022-10-23T03:34:22.185Z,10.60
2022-10-23T03:36:25.053Z,10.60
2022-10-23T03:38:29.256Z,10.60
2022-10-23T03:40:32.137Z,10.60
2022-10-23T03:42:34.995Z,10.60
2022-10-23T03:44:37.816Z,10.60
2022-10-23T03:46:40.813Z,10.50
2022-10-23T03:48:43.659Z,10.50
2022-10-23T03:50:46.520Z,10.50
2022-10-23T03:52:49.354Z,10.50
2022-10-23T03:54:53.531Z,10.40
2022-10-23T03:56:57.573Z,10.40
2022-10-23T03:59:00.697Z,10.40
2022-10-23T04:01:03.616Z,10.40
2022-10-23T04:03:06.496Z,10.30
2022-10-23T04:05:09.541Z,10.30
2022-10-23T04:07:12.437Z,10.30
2022-10-23T04:09:15.267Z,10.30
2022-10-23T04:11:19.488Z,10.30
2022-10-23T04:13:22.339Z,10.30
2022-10-23T04:15:25.210Z,10.30
2022-10-23T04:19:35.789Z,10.30
2022-10-23T04:21:38.646Z,10.30
2022-10-23T04:23:41.493Z,10.20
2022-10-23T04:25:44.380Z,10.30
2022-10-23T04:27:49.210Z,10.20
2022-10-23T04:29:54.337Z,10.20
2022-10-23T04:31:59.749Z,10.20
2022-10-23T04:34:02.623Z,10.20
2022-10-23T04:36:06.144Z,10.10
2022-10-23T04:38:08.976Z,10.10
2022-10-23T04:40:12.047Z,10.10
2022-10-23T04:42:14.992Z,10.10
2022-10-23T04:44:19.233Z,10.10
2022-10-23T04:46:22.073Z,10.10
2022-10-23T04:48:27.061Z,10.10
2022-10-23T04:50:31.959Z,10.10
2022-10-23T04:52:34.831Z,10.10
2022-10-23T04:54:38.382Z,10.10
2022-10-23T04:56:41.234Z,10.10
2022-10-23T04:58:44.072Z,10.10
2022-10-23T05:00:48.598Z,10.00
2022-10-23T05:02:51.476Z,10.00
2022-10-23T05:04:54.584Z,10.00
2022-10-23T05:06:57.444Z,10.00
2022-10-23T05:09:00.260Z,10.10
2022-10-23T05:11:03.115Z,10.10
2022-10-23T05:13:06.070Z,10.10
2022-10-23T05:15:09.292Z,10.10
2022-10-23T05:17:15.575Z,10.10
2022-10-23T05:19:24.157Z,10.10
2022-10-23T05:21:28.635Z,10.10
2022-10-23T05:23:31.459Z,10.10
2022-10-23T05:25:34.274Z,10.20
2022-10-23T05:27:37.066Z,10.10
2022-10-23T05:29:39.863Z,10.10
2022-10-23T05:31:42.667Z,10.10
2022-10-23T05:33:46.827Z,10.20
2022-10-23T05:35:49.648Z,10.20
2022-10-23T05:37:52.540Z,10.20
2022-10-23T05:39:55.317Z,10.20
2022-10-23T05:41:58.147Z,10.20
2022-10-23T05:44:00.936Z,10.20
2022-10-23T05:46:06.122Z,10.20
2022-10-23T05:48:17.025Z,10.20
2022-10-23T05:50:26.887Z,10.20
2022-10-23T05:52:29.691Z,10.20
2022-10-23T05:54:32.494Z,10.20
2022-10-23T05:56:35.498Z,10.20
2022-10-23T05:58:38.291Z,10.20
2022-10-23T06:00:41.137Z,10.20
2022-10-23T06:02:43.934Z,10.20
2022-10-23T06:04:46.725Z,10.20
2022-10-23T06:06:50.903Z,10.30
2022-10-23T06:08:53.744Z,10.30
2022-10-23T06:10:56.658Z,10.30
2022-10-23T06:12:59.441Z,10.30
2022-10-23T06:15:02.239Z,10.30
2022-10-23T06:17:05.414Z,10.20
2022-10-23T06:19:10.407Z,10.30
2022-10-23T06:21:13.314Z,10.30
2022-10-23T06:23:17.470Z,10.30
2022-10-23T06:25:20.261Z,10.40
2022-10-23T06:27:23.215Z,10.40
2022-10-23T06:29:26.131Z,10.40
2022-10-23T06:31:28.964Z,10.40
2022-10-23T06:33:31.757Z,10.40
2022-10-23T06:35:34.563Z,10.50
2022-10-23T06:37:37.362Z,10.50
2022-10-23T06:39:41.559Z,10.50
2022-10-23T06:41:45.379Z,10.50
2022-10-23T06:43:48.957Z,10.60
2022-10-23T06:45:51.749Z,10.60
2022-10-23T06:47:54.592Z,10.60
2022-10-23T06:49:57.387Z,10.70
2022-10-23T06:52:00.205Z,10.70
2022-10-23T06:54:02.995Z,10.80
2022-10-23T06:56:07.804Z,10.80
2022-10-23T06:58:11.382Z,10.90
2022-10-23T07:00:14.790Z,10.90
2022-10-23T07:02:17.614Z,11.00
2022-10-23T07:04:20.423Z,11.00
2022-10-23T07:06:23.231Z,11.10
2022-10-23T07:08:26.027Z,11.20
2022-10-23T07:10:28.887Z,11.20
2022-10-23T07:12:33.063Z,11.30
2022-10-23T07:14:35.919Z,11.40
2022-10-23T07:16:38.786Z,11.50
2022-10-23T07:18:41.594Z,11.60
2022-10-23T07:20:44.457Z,11.70
2022-10-23T07:22:52.157Z,11.70
2022-10-23T07:24:54.957Z,11.80
2022-10-23T07:26:58.223Z,11.80
2022-10-23T07:29:02.376Z,11.80
2022-10-23T07:31:05.420Z,11.90
2022-10-23T07:33:08.325Z,11.90
2022-10-23T07:35:11.641Z,12.00
2022-10-23T07:37:14.512Z,12.00
2022-10-23T07:39:17.315Z,12.10
2022-10-23T07:41:20.137Z,12.10
2022-10-23T07:43:23.010Z,12.20
2022-10-23T07:45:27.305Z,12.20
2022-10-23T07:47:30.187Z,12.20
2022-10-23T07:49:32.978Z,12.30
2022-10-23T07:51:35.791Z,12.30
2022-10-23T07:53:38.680Z,12.30
2022-10-23T07:55:41.463Z,12.40
2022-10-23T07:57:44.278Z,12.50
2022-10-23T07:59:47.082Z,12.60
2022-10-23T08:01:52.698Z,12.70
2022-10-23T08:03:58.447Z,12.70
2022-10-23T08:06:01.329Z,12.80
2022-10-23T08:08:04.216Z,12.90
2022-10-23T08:10:07.973Z,12.90
2022-10-23T08:12:10.983Z,13.00
2022-10-23T08:14:13.783Z,13.10
2022-10-23T08:16:16.545Z,13.20
2022-10-23T08:18:20.943Z,13.30
2022-10-23T08:20:23.731Z,13.40
2022-10-23T08:22:26.631Z,13.50
2022-10-23T08:24:29.405Z,13.50
2022-10-23T08:26:32.227Z,13.60
2022-10-23T08:28:35.017Z,13.70
2022-10-23T08:30:37.974Z,13.70
2022-10-23T08:32:40.766Z,13.80
2022-10-23T08:34:44.971Z,13.90
2022-10-23T08:36:48.214Z,14.00
2022-10-23T08:38:52.112Z,14.00
2022-10-23T08:40:54.955Z,14.10
2022-10-23T08:43:00.205Z,14.20
2022-10-23T08:45:05.055Z,14.20
2022-10-23T08:47:09.604Z,14.30
2022-10-23T08:49:21.957Z,14.30
2022-10-23T08:51:28.340Z,14.50
2022-10-23T08:53:33.716Z,14.40
2022-10-23T08:55:37.358Z,14.50
2022-10-23T08:57:43.773Z,14.60
2022-10-23T08:59:48.022Z,14.60
2022-10-23T09:01:52.274Z,14.60
2022-10-23T09:03:55.262Z,14.70
2022-10-23T09:06:05.789Z,14.80
2022-10-23T09:08:21.950Z,14.80
2022-10-23T09:10:34.122Z,14.90
2022-10-23T09:12:36.989Z,15.00
2022-10-23T09:14:56.489Z,15.20
2022-10-23T09:17:06.133Z,15.10
2022-10-23T09:19:12.812Z,15.30
2022-10-23T09:21:15.778Z,15.30
2022-10-23T09:23:20.743Z,15.50
2022-10-23T09:25:25.130Z,15.60
2022-10-23T09:27:27.973Z,15.70
2022-10-23T09:29:32.876Z,15.80
2022-10-23T09:31:35.801Z,15.90
2022-10-23T09:33:38.634Z,15.90
2022-10-23T09:35:51.861Z,16.00
2022-10-23T09:37:55.720Z,16.00
2022-10-23T09:40:19.009Z,15.90
2022-10-23T09:42:23.689Z,15.80
2022-10-23T09:44:26.973Z,15.70
2022-10-23T09:46:39.090Z,15.70
2022-10-23T09:48:42.283Z,15.70
2022-10-23T09:50:55.292Z,15.70
2022-10-23T09:52:58.136Z,15.80
2022-10-23T09:55:02.024Z,15.70
2022-10-23T09:57:14.288Z,15.80
2022-10-23T09:59:22.817Z,15.80
2022-10-23T10:01:26.305Z,15.90
2022-10-23T10:03:29.197Z,15.90
2022-10-23T10:05:32.948Z,15.90
2022-10-23T10:07:36.813Z,16.00
2022-10-23T10:09:39.767Z,16.00
2022-10-23T10:11:45.277Z,16.10
2022-10-23T10:14:04.329Z,16.00
2022-10-23T10:16:08.743Z,16.00
2022-10-23T10:18:15.943Z,16.00
2022-10-23T10:20:30.416Z,16.00
2022-10-23T10:22:34.968Z,15.80
2022-10-23T10:24:40.922Z,15.90
2022-10-23T10:26:51.003Z,15.90
2022-10-23T10:29:06.381Z,15.90
2022-10-23T10:31:12.096Z,16.00
2022-10-23T10:33:17.308Z,16.00
2022-10-23T10:35:35.549Z,16.00
2022-10-23T10:37:47.338Z,16.00
2022-10-23T10:39:55.476Z,16.00
2022-10-23T10:42:05.361Z,16.20
2022-10-23T10:44:36.659Z,16.50
2022-10-23T10:46:41.232Z,16.90
2022-10-23T10:48:47.042Z,17.00
2022-10-23T10:50:52.047Z,17.00
2022-10-23T10:52:57.757Z,17.00
2022-10-23T10:55:03.701Z,16.90
2022-10-23T10:57:10.440Z,17.00
2022-10-23T10:59:15.636Z,17.10
2022-10-23T11:01:26.510Z,17.40
2022-10-23T11:03:36.161Z,17.40
2022-10-23T11:05:43.606Z,17.70
2022-10-23T11:07:53.830Z,18.10
2022-10-23T11:09:57.077Z,18.10
2022-10-23T11:11:59.903Z,18.30
2022-10-23T11:14:02.729Z,18.30
2022-10-23T11:16:09.909Z,18.40
2022-10-23T11:18:18.895Z,18.50
2022-10-23T11:20:40.964Z,18.90
2022-10-23T11:22:46.535Z,19.30
2022-10-23T11:25:26.768Z,19.40
2022-10-23T11:27:36.267Z,19.40
2022-10-23T11:30:00.004Z,19.30
2022-10-23T11:32:15.423Z,19.40
2022-10-23T11:34:48.443Z,19.20
2022-10-23T11:36:52.205Z,19.10
2022-10-23T11:38:59.125Z,19.30
2022-10-23T11:41:02.688Z,19.40
2022-10-23T11:43:05.562Z,19.40
2022-10-23T11:45:27.392Z,19.40
2022-10-23T11:47:39.553Z,19.60
2022-10-23T11:49:43.082Z,19.70
2022-10-23T11:51:47.333Z,20.00
2022-10-23T11:53:50.188Z,20.10
2022-10-23T11:56:04.520Z,20.10
2022-10-23T11:58:15.651Z,20.70
2022-10-23T12:00:22.616Z,21.50
2022-10-23T12:02:31.937Z,21.70
2022-10-23T12:04:39.381Z,22.00
2022-10-23T12:06:43.994Z,22.30
2022-10-23T12:08:51.536Z,22.70
2022-10-23T12:10:55.361Z,23.20
2022-10-23T12:12:59.250Z,22.80
2022-10-23T12:15:22.341Z,22.90
2022-10-23T12:17:35.785Z,22.70
2022-10-23T12:19:45.506Z,21.90
2022-10-23T12:21:48.352Z,22.20
2022-10-23T12:24:04.025Z,21.50
2022-10-23T12:26:27.921Z,21.20
2022-10-23T12:28:34.001Z,20.80
2022-10-23T12:30:40.970Z,20.50
2022-10-23T12:32:54.445Z,20.30
2022-10-23T12:35:07.808Z,20.30
2022-10-23T12:37:29.452Z,20.40
2022-10-23T12:39:36.285Z,20.50
2022-10-23T12:41:39.141Z,20.30
2022-10-23T12:43:42.368Z,20.20
2022-10-23T12:45:45.200Z,20.00
2022-10-23T12:47:48.258Z,19.80
2022-10-23T12:49:51.189Z,19.40
2022-10-23T12:51:57.596Z,19.20
2022-10-23T12:54:00.532Z,19.10
2022-10-23T12:56:05.372Z,18.90
2022-10-23T12:58:22.236Z,18.60
2022-10-23T13:00:25.669Z,18.40
2022-10-23T13:02:29.492Z,18.10
2022-10-23T13:04:32.919Z,18.00
2022-10-23T13:06:35.774Z,17.90
2022-10-23T13:08:41.436Z,17.80
2022-10-23T13:10:44.665Z,17.80
2022-10-23T13:12:53.516Z,17.70
2022-10-23T13:14:57.941Z,17.60
2022-10-23T13:17:02.140Z,17.60
2022-10-23T13:19:04.961Z,17.60
2022-10-23T13:21:15.448Z,17.60
2022-10-23T13:23:21.550Z,17.60
2022-10-23T13:25:24.862Z,17.60
2022-10-23T13:27:32.109Z,17.60
2022-10-23T13:29:36.299Z,17.70
2022-10-23T13:31:39.173Z,17.60
2022-10-23T13:33:42.714Z,17.60
2022-10-23T13:35:45.548Z,17.50
2022-10-23T13:37:48.483Z,17.50
2022-10-23T13:40:00.547Z,17.50
2022-10-23T13:42:12.469Z,17.50
2022-10-23T13:44:16.257Z,17.40
2022-10-23T13:46:21.395Z,17.40
2022-10-23T13:48:24.272Z,17.40
2022-10-23T13:50:27.156Z,17.40
2022-10-23T13:52:30.013Z,17.30
2022-10-23T13:54:32.879Z,17.30
2022-10-23T13:56:35.746Z,17.30
2022-10-23T13:58:38.601Z,17.30
2022-10-23T14:00:43.288Z,17.20
2022-10-23T14:02:47.540Z,17.20
2022-10-23T14:04:50.569Z,17.20
2022-10-23T14:06:58.335Z,17.20
2022-10-23T14:09:01.177Z,17.20
2022-10-23T14:11:04.100Z,17.20
2022-10-23T14:13:06.970Z,17.20
2022-10-23T14:15:11.002Z,17.20
2022-10-23T14:17:13.860Z,17.20
2022-10-23T14:19:18.062Z,17.20
2022-10-23T14:21:21.766Z,17.20
2022-10-23T14:23:24.588Z,17.30
2022-10-23T14:25:27.428Z,17.30
2022-10-23T14:27:30.959Z,17.30
2022-10-23T14:29:33.875Z,17.30
2022-10-23T14:31:36.736Z,17.30
2022-10-23T14:33:39.792Z,17.30
2022-10-23T14:35:44.026Z,17.30
2022-10-23T14:37:47.055Z,17.30
2022-10-23T14:39:50.466Z,17.30
2022-10-23T14:41:53.410Z,17.30
2022-10-23T14:43:56.251Z,17.30
2022-10-23T14:45:59.089Z,17.20
2022-10-23T14:48:02.489Z,17.20
2022-10-23T14:50:06.092Z,17.20
2022-10-23T14:52:10.294Z,17.10
2022-10-23T14:54:13.220Z,17.10
2022-10-23T14:56:16.260Z,17.00
2022-10-23T14:58:19.125Z,17.00
2022-10-23T15:00:22.095Z,17.00
2022-10-23T15:02:24.953Z,17.00
2022-10-23T15:04:27.795Z,17.00
2022-10-23T15:06:30.650Z,17.00
2022-10-23T15:08:34.961Z,17.00
2022-10-23T15:10:39.144Z,17.00
2022-10-23T15:12:42.249Z,17.00
2022-10-23T15:14:45.335Z,17.00
2022-10-23T15:16:48.396Z,17.00
2022-10-23T15:18:51.270Z,17.00
2022-10-23T15:20:54.145Z,17.00
2022-10-23T15:22:57.033Z,17.00
2022-10-23T15:25:01.216Z,17.00
2022-10-23T15:27:04.166Z,17.00
2022-10-23T15:29:07.008Z,16.90
2022-10-23T15:31:25.188Z,16.90
2022-10-23T15:33:28.239Z,16.90
2022-10-23T15:35:32.034Z,16.80
2022-10-23T15:37:34.910Z,16.80
2022-10-23T15:39:37.758Z,16.80
2022-10-23T15:41:42.488Z,16.70
2022-10-23T15:43:45.370Z,16.70
2022-10-23T15:45:48.256Z,16.60
2022-10-23T15:47:51.340Z,16.60
2022-10-23T15:49:54.185Z,16.60
2022-10-23T15:51:57.291Z,16.50
2022-10-23T15:54:00.199Z,16.50
2022-10-23T15:56:03.040Z,16.40
2022-10-23T15:58:07.266Z,16.40
2022-10-23T16:00:11.380Z,16.40
2022-10-23T16:02:15.443Z,16.40
2022-10-23T16:04:18.420Z,16.30
2022-10-23T16:06:21.545Z,16.30
2022-10-23T16:08:26.072Z,16.30
